
<gpx xmlns="http://www.topografix.com/GPX/1/1" xmlns:gpxx="http://www.garmin.com/xmlschemas/GpxExtensions/v3" xmlns:xsi="http://www.w3.org/2001/XMLSchema-instance" version="1.1" creator="Adze - https://getadze.com/" xsi:schemaLocation="http://www.topografix.com/GPX/1/1 http://www.topografix.com/GPX/1/1/gpx.xsd http://www.garmin.com/xmlschemas/GpxExtensions/v3 http://www.garmin.com/xmlschemas/GpxExtensionsv3.xsd">
    <metadata>
        <name>Untitled Document</name>
        <link href="http://www.garmin.com"></link>
        <time>2018-02-27T06:25:30.358Z</time>
    </metadata>
    <wpt lon="101.188226" lat="14.332324">
        <ele>28.000000</ele>
        <name>Wangree Resort</name>
        <cmt>27-APR-12 15:20:53</cmt>
        <desc>27-APR-12 15:20:53</desc>
        <sym>Lodging</sym>
        <extensions>
            <gpxx:WaypointExtension xmlns:gpxx="http://www.garmin.com/xmlschemas/GpxExtensions/v3">
                <gpxx:DisplayMode>SymbolOnly</gpxx:DisplayMode>
            </gpxx:WaypointExtension>
        </extensions>
    </wpt>
    <wpt lon="101.199711" lat="14.327664">
        <time>2012-04-29T08:59:52Z</time>
        <name>Water Sun</name>
        <cmt>NAKHON NAYOK 2005 PWD. RD.</cmt>
        <desc>NAKHON NAYOK 2005 PWD. RD.</desc>
        <sym>Drinking Water</sym>
        <extensions>
            <gpxx:WaypointExtension xmlns:gpxx="http://www.garmin.com/xmlschemas/GpxExtensions/v3">
                <gpxx:DisplayMode>SymbolOnly</gpxx:DisplayMode>
            </gpxx:WaypointExtension>
        </extensions>
    </wpt>
    <trk>
        <name>Sun</name>
        <extensions>
            <gpxx:TrackExtension xmlns:gpxx="http://www.garmin.com/xmlschemas/GpxExtensions/v3">
                <gpxx:DisplayColor>Green</gpxx:DisplayColor>
            </gpxx:TrackExtension>
        </extensions>
        <trkseg>
            <trkpt lon="101.188902" lat="14.332835">
                <ele>69.350000</ele>
                <time>2012-04-29T02:59:41Z</time>
            </trkpt>
            <trkpt lon="101.187017" lat="14.332358">
                <ele>72.240000</ele>
                <time>2012-04-29T03:00:45Z</time>
            </trkpt>
            <trkpt lon="101.186827" lat="14.333037">
                <ele>72.720000</ele>
                <time>2012-04-29T03:01:04Z</time>
            </trkpt>
            <trkpt lon="101.186936" lat="14.333211">
                <ele>73.200000</ele>
                <time>2012-04-29T03:01:10Z</time>
            </trkpt>
            <trkpt lon="101.188029" lat="14.333496">
                <ele>70.310000</ele>
                <time>2012-04-29T03:01:31Z</time>
            </trkpt>
            <trkpt lon="101.188498" lat="14.333825">
                <ele>71.270000</ele>
                <time>2012-04-29T03:01:44Z</time>
            </trkpt>
            <trkpt lon="101.187813" lat="14.334367">
                <ele>71.760000</ele>
                <time>2012-04-29T03:01:50Z</time>
            </trkpt>
            <trkpt lon="101.187759" lat="14.334567">
                <ele>72.240000</ele>
                <time>2012-04-29T03:01:55Z</time>
            </trkpt>
            <trkpt lon="101.187558" lat="14.335426">
                <ele>72.720000</ele>
                <time>2012-04-29T03:02:15Z</time>
            </trkpt>
            <trkpt lon="101.187397" lat="14.335514">
                <ele>72.240000</ele>
                <time>2012-04-29T03:02:20Z</time>
            </trkpt>
            <trkpt lon="101.186552" lat="14.335350">
                <ele>73.680000</ele>
                <time>2012-04-29T03:02:40Z</time>
            </trkpt>
            <trkpt lon="101.186308" lat="14.335890">
                <ele>75.600000</ele>
                <time>2012-04-29T03:03:08Z</time>
            </trkpt>
            <trkpt lon="101.186123" lat="14.336915">
                <ele>75.120000</ele>
                <time>2012-04-29T03:03:49Z</time>
            </trkpt>
            <trkpt lon="101.187362" lat="14.337213">
                <ele>72.240000</ele>
                <time>2012-04-29T03:04:53Z</time>
            </trkpt>
            <trkpt lon="101.186337" lat="14.340892">
                <ele>77.520000</ele>
                <time>2012-04-29T03:06:29Z</time>
            </trkpt>
            <trkpt lon="101.186012" lat="14.341370">
                <ele>78.970000</ele>
                <time>2012-04-29T03:06:44Z</time>
            </trkpt>
            <trkpt lon="101.185665" lat="14.341588">
                <ele>79.930000</ele>
                <time>2012-04-29T03:06:56Z</time>
            </trkpt>
            <trkpt lon="101.185134" lat="14.342199">
                <ele>83.290000</ele>
                <time>2012-04-29T03:07:22Z</time>
            </trkpt>
            <trkpt lon="101.184951" lat="14.342526">
                <ele>84.730000</ele>
                <time>2012-04-29T03:07:36Z</time>
            </trkpt>
            <trkpt lon="101.185075" lat="14.342864">
                <ele>84.730000</ele>
                <time>2012-04-29T03:07:49Z</time>
            </trkpt>
            <trkpt lon="101.185277" lat="14.342946">
                <ele>83.770000</ele>
                <time>2012-04-29T03:07:57Z</time>
            </trkpt>
            <trkpt lon="101.185303" lat="14.343155">
                <ele>84.250000</ele>
                <time>2012-04-29T03:08:07Z</time>
            </trkpt>
            <trkpt lon="101.184970" lat="14.344072">
                <ele>86.660000</ele>
                <time>2012-04-29T03:08:45Z</time>
            </trkpt>
            <trkpt lon="101.185278" lat="14.344360">
                <ele>84.730000</ele>
                <time>2012-04-29T03:09:48Z</time>
            </trkpt>
            <trkpt lon="101.185725" lat="14.344374">
                <ele>88.580000</ele>
                <time>2012-04-29T03:10:45Z</time>
            </trkpt>
            <trkpt lon="101.186205" lat="14.344339">
                <ele>87.620000</ele>
                <time>2012-04-29T03:11:16Z</time>
            </trkpt>
            <trkpt lon="101.186455" lat="14.344191">
                <ele>83.770000</ele>
                <time>2012-04-29T03:11:35Z</time>
            </trkpt>
            <trkpt lon="101.186551" lat="14.343953">
                <ele>81.850000</ele>
                <time>2012-04-29T03:11:46Z</time>
            </trkpt>
            <trkpt lon="101.187279" lat="14.343277">
                <ele>80.410000</ele>
                <time>2012-04-29T03:12:13Z</time>
            </trkpt>
            <trkpt lon="101.187411" lat="14.343118">
                <ele>79.450000</ele>
                <time>2012-04-29T03:12:19Z</time>
            </trkpt>
            <trkpt lon="101.187428" lat="14.342768">
                <ele>78.000000</ele>
                <time>2012-04-29T03:12:42Z</time>
            </trkpt>
            <trkpt lon="101.188055" lat="14.342107">
                <ele>77.040000</ele>
                <time>2012-04-29T03:13:45Z</time>
            </trkpt>
            <trkpt lon="101.188184" lat="14.341723">
                <ele>76.560000</ele>
                <time>2012-04-29T03:13:56Z</time>
            </trkpt>
            <trkpt lon="101.188772" lat="14.341187">
                <ele>74.640000</ele>
                <time>2012-04-29T03:14:22Z</time>
            </trkpt>
            <trkpt lon="101.188906" lat="14.340822">
                <ele>75.120000</ele>
                <time>2012-04-29T03:14:34Z</time>
            </trkpt>
            <trkpt lon="101.189122" lat="14.340266">
                <ele>73.200000</ele>
                <time>2012-04-29T03:14:49Z</time>
            </trkpt>
            <trkpt lon="101.190054" lat="14.339803">
                <ele>72.240000</ele>
                <time>2012-04-29T03:15:10Z</time>
            </trkpt>
            <trkpt lon="101.190437" lat="14.340236">
                <ele>74.160000</ele>
                <time>2012-04-29T03:15:26Z</time>
            </trkpt>
            <trkpt lon="101.191244" lat="14.340394">
                <ele>76.560000</ele>
                <time>2012-04-29T03:16:07Z</time>
            </trkpt>
            <trkpt lon="101.191878" lat="14.338725">
                <ele>68.870000</ele>
                <time>2012-04-29T03:17:25Z</time>
            </trkpt>
            <trkpt lon="101.192203" lat="14.338480">
                <ele>68.870000</ele>
                <time>2012-04-29T03:17:38Z</time>
            </trkpt>
            <trkpt lon="101.192381" lat="14.338504">
                <ele>70.310000</ele>
                <time>2012-04-29T03:17:47Z</time>
            </trkpt>
            <trkpt lon="101.192784" lat="14.338032">
                <ele>69.830000</ele>
                <time>2012-04-29T03:18:38Z</time>
            </trkpt>
            <trkpt lon="101.192853" lat="14.336932">
                <ele>65.990000</ele>
                <time>2012-04-29T03:19:18Z</time>
            </trkpt>
            <trkpt lon="101.193196" lat="14.335893">
                <ele>65.510000</ele>
                <time>2012-04-29T03:19:50Z</time>
            </trkpt>
            <trkpt lon="101.194134" lat="14.335804">
                <ele>65.510000</ele>
                <time>2012-04-29T03:20:12Z</time>
            </trkpt>
            <trkpt lon="101.194570" lat="14.336232">
                <ele>66.470000</ele>
                <time>2012-04-29T03:20:29Z</time>
            </trkpt>
            <trkpt lon="101.194766" lat="14.336250">
                <ele>67.430000</ele>
                <time>2012-04-29T03:20:37Z</time>
            </trkpt>
            <trkpt lon="101.195240" lat="14.336513">
                <ele>68.390000</ele>
                <time>2012-04-29T03:21:01Z</time>
            </trkpt>
            <trkpt lon="101.196016" lat="14.335833">
                <ele>65.990000</ele>
                <time>2012-04-29T03:21:27Z</time>
            </trkpt>
            <trkpt lon="101.196512" lat="14.334991">
                <ele>65.030000</ele>
                <time>2012-04-29T03:21:52Z</time>
            </trkpt>
            <trkpt lon="101.197041" lat="14.334660">
                <ele>65.990000</ele>
                <time>2012-04-29T03:22:10Z</time>
            </trkpt>
            <trkpt lon="101.197070" lat="14.334239">
                <ele>66.470000</ele>
                <time>2012-04-29T03:22:22Z</time>
            </trkpt>
            <trkpt lon="101.197225" lat="14.334110">
                <ele>67.430000</ele>
                <time>2012-04-29T03:22:30Z</time>
            </trkpt>
            <trkpt lon="101.198244" lat="14.334018">
                <ele>70.790000</ele>
                <time>2012-04-29T03:23:06Z</time>
            </trkpt>
            <trkpt lon="101.199047" lat="14.334145">
                <ele>75.600000</ele>
                <time>2012-04-29T03:23:32Z</time>
            </trkpt>
            <trkpt lon="101.200345" lat="14.334136">
                <ele>79.450000</ele>
                <time>2012-04-29T03:24:08Z</time>
            </trkpt>
            <trkpt lon="101.202370" lat="14.334667">
                <ele>94.830000</ele>
                <time>2012-04-29T03:25:31Z</time>
            </trkpt>
            <trkpt lon="101.202972" lat="14.334695">
                <ele>94.830000</ele>
                <time>2012-04-29T03:25:56Z</time>
            </trkpt>
            <trkpt lon="101.203115" lat="14.334868">
                <ele>95.790000</ele>
                <time>2012-04-29T03:26:04Z</time>
            </trkpt>
            <trkpt lon="101.203200" lat="14.335578">
                <ele>94.830000</ele>
                <time>2012-04-29T03:26:22Z</time>
            </trkpt>
            <trkpt lon="101.202944" lat="14.336907">
                <ele>95.790000</ele>
                <time>2012-04-29T03:26:54Z</time>
            </trkpt>
            <trkpt lon="101.202912" lat="14.337168">
                <ele>95.310000</ele>
                <time>2012-04-29T03:26:59Z</time>
            </trkpt>
            <trkpt lon="101.202958" lat="14.338070">
                <ele>95.310000</ele>
                <time>2012-04-29T03:27:15Z</time>
            </trkpt>
            <trkpt lon="101.202735" lat="14.339833">
                <ele>104.440000</ele>
                <time>2012-04-29T03:28:16Z</time>
            </trkpt>
            <trkpt lon="101.202648" lat="14.340306">
                <ele>101.560000</ele>
                <time>2012-04-29T03:28:37Z</time>
            </trkpt>
            <trkpt lon="101.202830" lat="14.340662">
                <ele>95.310000</ele>
                <time>2012-04-29T03:28:47Z</time>
            </trkpt>
            <trkpt lon="101.203932" lat="14.340227">
                <ele>95.790000</ele>
                <time>2012-04-29T03:28:54Z</time>
            </trkpt>
            <trkpt lon="101.204690" lat="14.340150">
                <ele>95.790000</ele>
                <time>2012-04-29T03:29:07Z</time>
            </trkpt>
            <trkpt lon="101.205011" lat="14.339961">
                <ele>96.270000</ele>
                <time>2012-04-29T03:29:23Z</time>
            </trkpt>
            <trkpt lon="101.205418" lat="14.339852">
                <ele>96.750000</ele>
                <time>2012-04-29T03:29:37Z</time>
            </trkpt>
            <trkpt lon="101.205616" lat="14.339797">
                <ele>96.750000</ele>
                <time>2012-04-29T03:29:43Z</time>
            </trkpt>
            <trkpt lon="101.205792" lat="14.339739">
                <ele>96.270000</ele>
                <time>2012-04-29T03:29:49Z</time>
            </trkpt>
            <trkpt lon="101.206456" lat="14.338978">
                <ele>98.190000</ele>
                <time>2012-04-29T03:30:21Z</time>
            </trkpt>
            <trkpt lon="101.206368" lat="14.337945">
                <ele>98.190000</ele>
                <time>2012-04-29T03:30:50Z</time>
            </trkpt>
            <trkpt lon="101.206605" lat="14.337383">
                <ele>97.230000</ele>
                <time>2012-04-29T03:31:07Z</time>
            </trkpt>
            <trkpt lon="101.208201" lat="14.336471">
                <ele>98.670000</ele>
                <time>2012-04-29T03:31:57Z</time>
            </trkpt>
            <trkpt lon="101.209063" lat="14.336755">
                <ele>97.230000</ele>
                <time>2012-04-29T03:32:21Z</time>
            </trkpt>
            <trkpt lon="101.209446" lat="14.336643">
                <ele>98.190000</ele>
                <time>2012-04-29T03:32:33Z</time>
            </trkpt>
            <trkpt lon="101.209830" lat="14.336426">
                <ele>97.230000</ele>
                <time>2012-04-29T03:32:44Z</time>
            </trkpt>
            <trkpt lon="101.209921" lat="14.336249">
                <ele>97.230000</ele>
                <time>2012-04-29T03:32:49Z</time>
            </trkpt>
            <trkpt lon="101.209614" lat="14.335871">
                <ele>99.150000</ele>
                <time>2012-04-29T03:33:01Z</time>
            </trkpt>
            <trkpt lon="101.208719" lat="14.334820">
                <ele>99.630000</ele>
                <time>2012-04-29T03:33:35Z</time>
            </trkpt>
            <trkpt lon="101.208151" lat="14.333971">
                <ele>95.790000</ele>
                <time>2012-04-29T03:33:59Z</time>
            </trkpt>
            <trkpt lon="101.207662" lat="14.333511">
                <ele>96.750000</ele>
                <time>2012-04-29T03:34:14Z</time>
            </trkpt>
            <trkpt lon="101.207249" lat="14.332811">
                <ele>101.080000</ele>
                <time>2012-04-29T03:34:37Z</time>
            </trkpt>
            <trkpt lon="101.206493" lat="14.331486">
                <ele>94.830000</ele>
                <time>2012-04-29T03:35:12Z</time>
            </trkpt>
            <trkpt lon="101.206295" lat="14.331462">
                <ele>96.750000</ele>
                <time>2012-04-29T03:35:19Z</time>
            </trkpt>
            <trkpt lon="101.205761" lat="14.331652">
                <ele>95.310000</ele>
                <time>2012-04-29T03:35:33Z</time>
            </trkpt>
            <trkpt lon="101.204771" lat="14.331181">
                <ele>92.900000</ele>
                <time>2012-04-29T03:35:53Z</time>
            </trkpt>
            <trkpt lon="101.204248" lat="14.331083">
                <ele>97.710000</ele>
                <time>2012-04-29T03:36:09Z</time>
            </trkpt>
            <trkpt lon="101.204034" lat="14.330948">
                <ele>96.750000</ele>
                <time>2012-04-29T03:36:16Z</time>
            </trkpt>
            <trkpt lon="101.203190" lat="14.330747">
                <ele>91.460000</ele>
                <time>2012-04-29T03:36:31Z</time>
            </trkpt>
            <trkpt lon="101.202582" lat="14.330113">
                <ele>76.560000</ele>
                <time>2012-04-29T03:36:39Z</time>
            </trkpt>
            <trkpt lon="101.201842" lat="14.329950">
                <ele>72.720000</ele>
                <time>2012-04-29T03:36:50Z</time>
            </trkpt>
            <trkpt lon="101.202031" lat="14.329144">
                <ele>69.830000</ele>
                <time>2012-04-29T03:37:07Z</time>
            </trkpt>
            <trkpt lon="101.201972" lat="14.328367">
                <ele>69.350000</ele>
                <time>2012-04-29T03:37:24Z</time>
            </trkpt>
            <trkpt lon="101.201820" lat="14.326662">
                <ele>65.510000</ele>
                <time>2012-04-29T03:38:56Z</time>
            </trkpt>
            <trkpt lon="101.201075" lat="14.326051">
                <ele>65.510000</ele>
                <time>2012-04-29T03:39:34Z</time>
            </trkpt>
            <trkpt lon="101.199905" lat="14.327469">
                <ele>66.950000</ele>
                <time>2012-04-29T03:40:15Z</time>
            </trkpt>
            <trkpt lon="101.199827" lat="14.327742">
                <ele>66.950000</ele>
                <time>2012-04-29T03:40:34Z</time>
            </trkpt>
            <trkpt lon="101.199826" lat="14.327772">
                <ele>64.070000</ele>
                <time>2012-04-29T03:58:33Z</time>
            </trkpt>
            <trkpt lon="101.199831" lat="14.327602">
                <ele>64.070000</ele>
                <time>2012-04-29T03:58:56Z</time>
            </trkpt>
            <trkpt lon="101.202092" lat="14.324968">
                <ele>62.140000</ele>
                <time>2012-04-29T04:00:01Z</time>
            </trkpt>
            <trkpt lon="101.204480" lat="14.321722">
                <ele>55.410000</ele>
                <time>2012-04-29T04:01:09Z</time>
            </trkpt>
            <trkpt lon="101.204672" lat="14.321992">
                <ele>54.930000</ele>
                <time>2012-04-29T04:01:34Z</time>
            </trkpt>
            <trkpt lon="101.204859" lat="14.321977">
                <ele>55.410000</ele>
                <time>2012-04-29T04:01:44Z</time>
            </trkpt>
            <trkpt lon="101.205337" lat="14.321621">
                <ele>57.340000</ele>
                <time>2012-04-29T04:02:10Z</time>
            </trkpt>
            <trkpt lon="101.206497" lat="14.321253">
                <ele>59.740000</ele>
                <time>2012-04-29T04:03:02Z</time>
            </trkpt>
            <trkpt lon="101.206896" lat="14.320885">
                <ele>70.310000</ele>
                <time>2012-04-29T04:04:37Z</time>
            </trkpt>
            <trkpt lon="101.207057" lat="14.320784">
                <ele>71.760000</ele>
                <time>2012-04-29T04:05:18Z</time>
            </trkpt>
            <trkpt lon="101.209399" lat="14.319211">
                <ele>56.860000</ele>
                <time>2012-04-29T04:07:41Z</time>
            </trkpt>
            <trkpt lon="101.209998" lat="14.319150">
                <ele>64.550000</ele>
                <time>2012-04-29T04:08:28Z</time>
            </trkpt>
            <trkpt lon="101.210370" lat="14.319027">
                <ele>66.950000</ele>
                <time>2012-04-29T04:08:56Z</time>
            </trkpt>
            <trkpt lon="101.210572" lat="14.318966">
                <ele>66.470000</ele>
                <time>2012-04-29T04:09:09Z</time>
            </trkpt>
            <trkpt lon="101.211278" lat="14.318539">
                <ele>56.370000</ele>
                <time>2012-04-29T04:09:34Z</time>
            </trkpt>
            <trkpt lon="101.211462" lat="14.318569">
                <ele>55.890000</ele>
                <time>2012-04-29T04:09:41Z</time>
            </trkpt>
            <trkpt lon="101.211650" lat="14.319300">
                <ele>55.890000</ele>
                <time>2012-04-29T04:09:57Z</time>
            </trkpt>
            <trkpt lon="101.211558" lat="14.321015">
                <ele>54.450000</ele>
                <time>2012-04-29T04:10:32Z</time>
            </trkpt>
            <trkpt lon="101.211667" lat="14.321446">
                <ele>54.450000</ele>
                <time>2012-04-29T04:10:41Z</time>
            </trkpt>
            <trkpt lon="101.211922" lat="14.321989">
                <ele>53.490000</ele>
                <time>2012-04-29T04:10:53Z</time>
            </trkpt>
            <trkpt lon="101.212518" lat="14.322034">
                <ele>54.930000</ele>
                <time>2012-04-29T04:11:06Z</time>
            </trkpt>
            <trkpt lon="101.213094" lat="14.321815">
                <ele>53.010000</ele>
                <time>2012-04-29T04:11:18Z</time>
            </trkpt>
            <trkpt lon="101.213574" lat="14.321834">
                <ele>53.970000</ele>
                <time>2012-04-29T04:11:28Z</time>
            </trkpt>
            <trkpt lon="101.213800" lat="14.321792">
                <ele>53.490000</ele>
                <time>2012-04-29T04:11:33Z</time>
            </trkpt>
            <trkpt lon="101.215687" lat="14.320751">
                <ele>53.490000</ele>
                <time>2012-04-29T04:12:18Z</time>
            </trkpt>
            <trkpt lon="101.218151" lat="14.321138">
                <ele>53.970000</ele>
                <time>2012-04-29T04:13:09Z</time>
            </trkpt>
            <trkpt lon="101.220105" lat="14.324903">
                <ele>59.260000</ele>
                <time>2012-04-29T04:16:49Z</time>
            </trkpt>
            <trkpt lon="101.219951" lat="14.325034">
                <ele>59.740000</ele>
                <time>2012-04-29T04:17:03Z</time>
            </trkpt>
            <trkpt lon="101.219792" lat="14.325611">
                <ele>60.700000</ele>
                <time>2012-04-29T04:17:42Z</time>
            </trkpt>
            <trkpt lon="101.219543" lat="14.325598">
                <ele>60.220000</ele>
                <time>2012-04-29T04:17:52Z</time>
            </trkpt>
            <trkpt lon="101.219423" lat="14.326308">
                <ele>62.620000</ele>
                <time>2012-04-29T04:18:26Z</time>
            </trkpt>
            <trkpt lon="101.219160" lat="14.327129">
                <ele>63.580000</ele>
                <time>2012-04-29T04:19:38Z</time>
            </trkpt>
            <trkpt lon="101.219282" lat="14.327312">
                <ele>64.550000</ele>
                <time>2012-04-29T04:19:52Z</time>
            </trkpt>
            <trkpt lon="101.218740" lat="14.328382">
                <ele>65.510000</ele>
                <time>2012-04-29T04:21:22Z</time>
            </trkpt>
            <trkpt lon="101.219577" lat="14.328256">
                <ele>64.550000</ele>
                <time>2012-04-29T04:22:02Z</time>
            </trkpt>
            <trkpt lon="101.219838" lat="14.327759">
                <ele>65.030000</ele>
                <time>2012-04-29T04:22:26Z</time>
            </trkpt>
            <trkpt lon="101.220322" lat="14.327460">
                <ele>64.550000</ele>
                <time>2012-04-29T04:22:46Z</time>
            </trkpt>
            <trkpt lon="101.220898" lat="14.326891">
                <ele>65.990000</ele>
                <time>2012-04-29T04:23:14Z</time>
            </trkpt>
            <trkpt lon="101.221058" lat="14.326530">
                <ele>64.550000</ele>
                <time>2012-04-29T04:23:25Z</time>
            </trkpt>
            <trkpt lon="101.220942" lat="14.325299">
                <ele>61.660000</ele>
                <time>2012-04-29T04:23:50Z</time>
            </trkpt>
            <trkpt lon="101.220646" lat="14.324598">
                <ele>59.740000</ele>
                <time>2012-04-29T04:24:06Z</time>
            </trkpt>
            <trkpt lon="101.220574" lat="14.323575">
                <ele>58.300000</ele>
                <time>2012-04-29T04:24:29Z</time>
            </trkpt>
            <trkpt lon="101.220459" lat="14.323186">
                <ele>56.860000</ele>
                <time>2012-04-29T04:24:37Z</time>
            </trkpt>
            <trkpt lon="101.220538" lat="14.322743">
                <ele>55.890000</ele>
                <time>2012-04-29T04:24:45Z</time>
            </trkpt>
            <trkpt lon="101.220531" lat="14.322300">
                <ele>54.450000</ele>
                <time>2012-04-29T04:24:53Z</time>
            </trkpt>
            <trkpt lon="101.220277" lat="14.321483">
                <ele>52.530000</ele>
                <time>2012-04-29T04:25:09Z</time>
            </trkpt>
            <trkpt lon="101.220378" lat="14.321285">
                <ele>52.530000</ele>
                <time>2012-04-29T04:25:14Z</time>
            </trkpt>
            <trkpt lon="101.220559" lat="14.321208">
                <ele>53.010000</ele>
                <time>2012-04-29T04:25:18Z</time>
            </trkpt>
            <trkpt lon="101.220910" lat="14.320958">
                <ele>51.570000</ele>
                <time>2012-04-29T04:25:26Z</time>
            </trkpt>
            <trkpt lon="101.221011" lat="14.320770">
                <ele>51.570000</ele>
                <time>2012-04-29T04:25:30Z</time>
            </trkpt>
            <trkpt lon="101.221009" lat="14.319969">
                <ele>53.970000</ele>
                <time>2012-04-29T04:25:48Z</time>
            </trkpt>
            <trkpt lon="101.220999" lat="14.318114">
                <ele>53.010000</ele>
                <time>2012-04-29T04:26:24Z</time>
            </trkpt>
            <trkpt lon="101.220973" lat="14.317691">
                <ele>52.050000</ele>
                <time>2012-04-29T04:26:32Z</time>
            </trkpt>
            <trkpt lon="101.221335" lat="14.316423">
                <ele>53.010000</ele>
                <time>2012-04-29T04:26:56Z</time>
            </trkpt>
            <trkpt lon="101.221067" lat="14.315410">
                <ele>53.490000</ele>
                <time>2012-04-29T04:27:16Z</time>
            </trkpt>
            <trkpt lon="101.220956" lat="14.315012">
                <ele>52.530000</ele>
                <time>2012-04-29T04:27:24Z</time>
            </trkpt>
            <trkpt lon="101.221517" lat="14.313825">
                <ele>52.530000</ele>
                <time>2012-04-29T04:27:48Z</time>
            </trkpt>
            <trkpt lon="101.221990" lat="14.313437">
                <ele>53.010000</ele>
                <time>2012-04-29T04:28:00Z</time>
            </trkpt>
            <trkpt lon="101.222294" lat="14.312944">
                <ele>54.450000</ele>
                <time>2012-04-29T04:28:13Z</time>
            </trkpt>
            <trkpt lon="101.222622" lat="14.311977">
                <ele>55.410000</ele>
                <time>2012-04-29T04:28:34Z</time>
            </trkpt>
            <trkpt lon="101.222793" lat="14.311122">
                <ele>53.970000</ele>
                <time>2012-04-29T04:28:50Z</time>
            </trkpt>
            <trkpt lon="101.223063" lat="14.310849">
                <ele>54.450000</ele>
                <time>2012-04-29T04:28:58Z</time>
            </trkpt>
            <trkpt lon="101.223219" lat="14.310257">
                <ele>54.450000</ele>
                <time>2012-04-29T04:29:10Z</time>
            </trkpt>
            <trkpt lon="101.223532" lat="14.309958">
                <ele>52.530000</ele>
                <time>2012-04-29T04:29:18Z</time>
            </trkpt>
            <trkpt lon="101.223686" lat="14.309613">
                <ele>51.570000</ele>
                <time>2012-04-29T04:29:26Z</time>
            </trkpt>
            <trkpt lon="101.223698" lat="14.309432">
                <ele>49.160000</ele>
                <time>2012-04-29T04:29:29Z</time>
            </trkpt>
            <trkpt lon="101.223565" lat="14.309210">
                <ele>45.800000</ele>
                <time>2012-04-29T04:29:32Z</time>
            </trkpt>
            <trkpt lon="101.223175" lat="14.309021">
                <ele>40.510000</ele>
                <time>2012-04-29T04:29:36Z</time>
            </trkpt>
            <trkpt lon="101.219199" lat="14.308980">
                <ele>36.190000</ele>
                <time>2012-04-29T04:30:28Z</time>
            </trkpt>
            <trkpt lon="101.219218" lat="14.308395">
                <ele>34.740000</ele>
                <time>2012-04-29T04:30:47Z</time>
            </trkpt>
            <trkpt lon="101.219054" lat="14.308327">
                <ele>34.260000</ele>
                <time>2012-04-29T04:30:52Z</time>
            </trkpt>
            <trkpt lon="101.219045" lat="14.307956">
                <ele>33.300000</ele>
                <time>2012-04-29T04:31:01Z</time>
            </trkpt>
            <trkpt lon="101.219823" lat="14.305612">
                <ele>31.860000</ele>
                <time>2012-04-29T04:31:55Z</time>
            </trkpt>
            <trkpt lon="101.220134" lat="14.304638">
                <ele>30.420000</ele>
                <time>2012-04-29T04:32:25Z</time>
            </trkpt>
            <trkpt lon="101.218816" lat="14.305030">
                <ele>29.940000</ele>
                <time>2012-04-29T04:33:15Z</time>
            </trkpt>
            <trkpt lon="101.218229" lat="14.307023">
                <ele>33.300000</ele>
                <time>2012-04-29T04:34:05Z</time>
            </trkpt>
            <trkpt lon="101.217245" lat="14.306773">
                <ele>32.340000</ele>
                <time>2012-04-29T04:34:26Z</time>
            </trkpt>
            <trkpt lon="101.217047" lat="14.307760">
                <ele>33.300000</ele>
                <time>2012-04-29T04:34:50Z</time>
            </trkpt>
            <trkpt lon="101.214912" lat="14.308024">
                <ele>33.300000</ele>
                <time>2012-04-29T04:35:31Z</time>
            </trkpt>
            <trkpt lon="101.214716" lat="14.307937">
                <ele>33.300000</ele>
                <time>2012-04-29T04:35:35Z</time>
            </trkpt>
            <trkpt lon="101.214670" lat="14.307701">
                <ele>34.260000</ele>
                <time>2012-04-29T04:35:39Z</time>
            </trkpt>
            <trkpt lon="101.214498" lat="14.306758">
                <ele>32.340000</ele>
                <time>2012-04-29T04:35:54Z</time>
            </trkpt>
            <trkpt lon="101.214442" lat="14.304848">
                <ele>30.900000</ele>
                <time>2012-04-29T04:36:21Z</time>
            </trkpt>
            <trkpt lon="101.214388" lat="14.303810">
                <ele>29.460000</ele>
                <time>2012-04-29T04:36:37Z</time>
            </trkpt>
            <trkpt lon="101.216095" lat="14.300149">
                <ele>27.050000</ele>
                <time>2012-04-29T04:37:38Z</time>
            </trkpt>
            <trkpt lon="101.216172" lat="14.299557">
                <ele>28.020000</ele>
                <time>2012-04-29T04:37:47Z</time>
            </trkpt>
            <trkpt lon="101.216135" lat="14.298927">
                <ele>26.570000</ele>
                <time>2012-04-29T04:37:57Z</time>
            </trkpt>
            <trkpt lon="101.215987" lat="14.298819">
                <ele>26.570000</ele>
                <time>2012-04-29T04:38:00Z</time>
            </trkpt>
            <trkpt lon="101.214515" lat="14.298748">
                <ele>28.020000</ele>
                <time>2012-04-29T04:38:24Z</time>
            </trkpt>
            <trkpt lon="101.214120" lat="14.298964">
                <ele>28.020000</ele>
                <time>2012-04-29T04:38:32Z</time>
            </trkpt>
            <trkpt lon="101.213262" lat="14.299761">
                <ele>28.020000</ele>
                <time>2012-04-29T04:38:52Z</time>
            </trkpt>
            <trkpt lon="101.212846" lat="14.299906">
                <ele>28.500000</ele>
                <time>2012-04-29T04:38:59Z</time>
            </trkpt>
            <trkpt lon="101.210894" lat="14.300025">
                <ele>28.500000</ele>
                <time>2012-04-29T04:39:31Z</time>
            </trkpt>
            <trkpt lon="101.210555" lat="14.301607">
                <ele>27.530000</ele>
                <time>2012-04-29T04:39:59Z</time>
            </trkpt>
            <trkpt lon="101.210412" lat="14.301787">
                <ele>28.020000</ele>
                <time>2012-04-29T04:40:03Z</time>
            </trkpt>
            <trkpt lon="101.208799" lat="14.302006">
                <ele>29.460000</ele>
                <time>2012-04-29T04:40:31Z</time>
            </trkpt>
            <trkpt lon="101.208590" lat="14.302401">
                <ele>29.460000</ele>
                <time>2012-04-29T04:40:39Z</time>
            </trkpt>
            <trkpt lon="101.208450" lat="14.303249">
                <ele>30.420000</ele>
                <time>2012-04-29T04:40:55Z</time>
            </trkpt>
            <trkpt lon="101.208285" lat="14.304752">
                <ele>31.380000</ele>
                <time>2012-04-29T04:41:23Z</time>
            </trkpt>
            <trkpt lon="101.208628" lat="14.305750">
                <ele>31.860000</ele>
                <time>2012-04-29T04:41:43Z</time>
            </trkpt>
            <trkpt lon="101.208596" lat="14.306585">
                <ele>31.860000</ele>
                <time>2012-04-29T04:41:59Z</time>
            </trkpt>
            <trkpt lon="101.208425" lat="14.306690">
                <ele>32.340000</ele>
                <time>2012-04-29T04:42:04Z</time>
            </trkpt>
            <trkpt lon="101.207772" lat="14.306613">
                <ele>32.820000</ele>
                <time>2012-04-29T04:42:16Z</time>
            </trkpt>
            <trkpt lon="101.205915" lat="14.306410">
                <ele>31.860000</ele>
                <time>2012-04-29T04:42:48Z</time>
            </trkpt>
            <trkpt lon="101.205234" lat="14.305516">
                <ele>32.820000</ele>
                <time>2012-04-29T04:43:07Z</time>
            </trkpt>
            <trkpt lon="101.204807" lat="14.305008">
                <ele>31.860000</ele>
                <time>2012-04-29T04:43:18Z</time>
            </trkpt>
            <trkpt lon="101.204446" lat="14.304932">
                <ele>31.860000</ele>
                <time>2012-04-29T04:43:26Z</time>
            </trkpt>
            <trkpt lon="101.204308" lat="14.304747">
                <ele>31.380000</ele>
                <time>2012-04-29T04:43:30Z</time>
            </trkpt>
            <trkpt lon="101.204146" lat="14.304749">
                <ele>30.420000</ele>
                <time>2012-04-29T04:43:34Z</time>
            </trkpt>
            <trkpt lon="101.203319" lat="14.305365">
                <ele>31.380000</ele>
                <time>2012-04-29T04:44:00Z</time>
            </trkpt>
            <trkpt lon="101.203609" lat="14.306281">
                <ele>32.820000</ele>
                <time>2012-04-29T04:44:23Z</time>
            </trkpt>
            <trkpt lon="101.203537" lat="14.307492">
                <ele>33.300000</ele>
                <time>2012-04-29T04:44:50Z</time>
            </trkpt>
            <trkpt lon="101.204007" lat="14.308868">
                <ele>35.230000</ele>
                <time>2012-04-29T04:45:24Z</time>
            </trkpt>
            <trkpt lon="101.203722" lat="14.309420">
                <ele>36.190000</ele>
                <time>2012-04-29T04:45:39Z</time>
            </trkpt>
            <trkpt lon="101.203477" lat="14.309750">
                <ele>36.190000</ele>
                <time>2012-04-29T04:45:51Z</time>
            </trkpt>
            <trkpt lon="101.203379" lat="14.310338">
                <ele>37.150000</ele>
                <time>2012-04-29T04:46:07Z</time>
            </trkpt>
            <trkpt lon="101.203489" lat="14.311141">
                <ele>38.110000</ele>
                <time>2012-04-29T04:46:27Z</time>
            </trkpt>
            <trkpt lon="101.203326" lat="14.311548">
                <ele>39.070000</ele>
                <time>2012-04-29T04:46:37Z</time>
            </trkpt>
            <trkpt lon="101.203082" lat="14.312858">
                <ele>39.070000</ele>
                <time>2012-04-29T04:47:17Z</time>
            </trkpt>
            <trkpt lon="101.203195" lat="14.313065">
                <ele>39.070000</ele>
                <time>2012-04-29T04:47:22Z</time>
            </trkpt>
            <trkpt lon="101.203588" lat="14.313219">
                <ele>40.030000</ele>
                <time>2012-04-29T04:47:32Z</time>
            </trkpt>
            <trkpt lon="101.203417" lat="14.314147">
                <ele>41.470000</ele>
                <time>2012-04-29T04:47:54Z</time>
            </trkpt>
            <trkpt lon="101.203576" lat="14.314344">
                <ele>41.950000</ele>
                <time>2012-04-29T04:48:00Z</time>
            </trkpt>
            <trkpt lon="101.203677" lat="14.315173">
                <ele>42.920000</ele>
                <time>2012-04-29T04:48:21Z</time>
            </trkpt>
            <trkpt lon="101.203988" lat="14.315902">
                <ele>44.360000</ele>
                <time>2012-04-29T04:48:43Z</time>
            </trkpt>
            <trkpt lon="101.203973" lat="14.316126">
                <ele>43.880000</ele>
                <time>2012-04-29T04:48:48Z</time>
            </trkpt>
            <trkpt lon="101.203663" lat="14.316433">
                <ele>44.360000</ele>
                <time>2012-04-29T04:48:58Z</time>
            </trkpt>
            <trkpt lon="101.203320" lat="14.316449">
                <ele>44.840000</ele>
                <time>2012-04-29T04:49:09Z</time>
            </trkpt>
            <trkpt lon="101.202667" lat="14.315177">
                <ele>45.320000</ele>
                <time>2012-04-29T04:49:42Z</time>
            </trkpt>
            <trkpt lon="101.202502" lat="14.315266">
                <ele>45.320000</ele>
                <time>2012-04-29T04:49:51Z</time>
            </trkpt>
            <trkpt lon="101.202185" lat="14.315940">
                <ele>46.760000</ele>
                <time>2012-04-29T04:50:04Z</time>
            </trkpt>
            <trkpt lon="101.202316" lat="14.316824">
                <ele>48.200000</ele>
                <time>2012-04-29T04:50:24Z</time>
            </trkpt>
            <trkpt lon="101.202324" lat="14.317452">
                <ele>48.680000</ele>
                <time>2012-04-29T04:50:39Z</time>
            </trkpt>
            <trkpt lon="101.201743" lat="14.318556">
                <ele>50.610000</ele>
                <time>2012-04-29T04:51:09Z</time>
            </trkpt>
            <trkpt lon="101.201632" lat="14.318708">
                <ele>50.130000</ele>
                <time>2012-04-29T04:51:15Z</time>
            </trkpt>
            <trkpt lon="101.201129" lat="14.318658">
                <ele>48.680000</ele>
                <time>2012-04-29T04:51:27Z</time>
            </trkpt>
            <trkpt lon="101.201039" lat="14.318235">
                <ele>48.680000</ele>
                <time>2012-04-29T04:51:41Z</time>
            </trkpt>
            <trkpt lon="101.200398" lat="14.318325">
                <ele>47.720000</ele>
                <time>2012-04-29T04:51:58Z</time>
            </trkpt>
            <trkpt lon="101.199749" lat="14.318170">
                <ele>49.160000</ele>
                <time>2012-04-29T04:52:16Z</time>
            </trkpt>
            <trkpt lon="101.199411" lat="14.318017">
                <ele>48.200000</ele>
                <time>2012-04-29T04:52:27Z</time>
            </trkpt>
            <trkpt lon="101.199141" lat="14.318249">
                <ele>47.240000</ele>
                <time>2012-04-29T04:52:45Z</time>
            </trkpt>
            <trkpt lon="101.198234" lat="14.318326">
                <ele>47.720000</ele>
                <time>2012-04-29T04:53:07Z</time>
            </trkpt>
            <trkpt lon="101.198101" lat="14.318634">
                <ele>48.680000</ele>
                <time>2012-04-29T04:53:23Z</time>
            </trkpt>
            <trkpt lon="101.197704" lat="14.318733">
                <ele>50.130000</ele>
                <time>2012-04-29T04:53:35Z</time>
            </trkpt>
            <trkpt lon="101.199112" lat="14.320028">
                <ele>52.530000</ele>
                <time>2012-04-29T04:54:20Z</time>
            </trkpt>
            <trkpt lon="101.199493" lat="14.321419">
                <ele>54.450000</ele>
                <time>2012-04-29T04:54:56Z</time>
            </trkpt>
            <trkpt lon="101.200073" lat="14.322040">
                <ele>55.410000</ele>
                <time>2012-04-29T04:55:15Z</time>
            </trkpt>
            <trkpt lon="101.200219" lat="14.322794">
                <ele>57.340000</ele>
                <time>2012-04-29T04:55:31Z</time>
            </trkpt>
            <trkpt lon="101.200683" lat="14.325459">
                <ele>60.220000</ele>
                <time>2012-04-29T04:56:27Z</time>
            </trkpt>
            <trkpt lon="101.201099" lat="14.326057">
                <ele>61.660000</ele>
                <time>2012-04-29T04:56:45Z</time>
            </trkpt>
            <trkpt lon="101.198121" lat="14.329496">
                <ele>63.580000</ele>
                <time>2012-04-29T04:58:06Z</time>
            </trkpt>
            <trkpt lon="101.192678" lat="14.335175">
                <ele>59.740000</ele>
                <time>2012-04-29T04:59:55Z</time>
            </trkpt>
            <trkpt lon="101.190447" lat="14.333680">
                <ele>59.260000</ele>
                <time>2012-04-29T05:00:43Z</time>
            </trkpt>
            <trkpt lon="101.189912" lat="14.333194">
                <ele>59.260000</ele>
                <time>2012-04-29T05:00:55Z</time>
            </trkpt>
            <trkpt lon="101.189052" lat="14.332911">
                <ele>60.220000</ele>
                <time>2012-04-29T05:01:11Z</time>
            </trkpt>
        </trkseg>
    </trk>
</gpx>